This is the latest recevied weather packets stored in our database for station/object DB0SWS-6. If no packets are shown the sender has not sent any weather packets the latest 10 day(s).
| Time | Temp. | Humidity | Pressure | Rain* | Wind** | Luminosity | Snow |
|---|---|---|---|---|---|---|---|
| 1777383210 | 20.56° C | 28% | 961.5 hPa | 0 mm | - | - | - |
| 1777381411 | 21.11° C | 35% | 961.6 hPa | 0 mm | - | - | - |
| 1777379610 | 21.11° C | 34% | 961.5 hPa | 0 mm | - | - | - |
| 1777377813 | 20.56° C | 34% | 961.5 hPa | 0 mm | - | - | - |
| 1777376011 | 20° C | 34% | 961.6 hPa | 0 mm | - | - | - |
| 1777374211 | 19.44° C | 35% | 961.9 hPa | 0 mm | - | - | - |
| 1777372410 | 19.44° C | 34% | 961.9 hPa | 0 mm | - | - | - |
| 1777370610 | 18.89° C | 34% | 961.9 hPa | 0 mm | - | - | - |
| 1777368810 | 18.89° C | 35% | 961.6 hPa | 0 mm | - | - | - |
| 1777363411 | 17.78° C | 36% | 961.9 hPa | 0 mm | - | - | - |
| 1777361611 | 16.67° C | 38% | 961.7 hPa | 0 mm | - | - | - |
| 1777359809 | 15.56° C | 40% | 961.6 hPa | 0 mm | - | - | - |
| 1777358010 | 15° C | 42% | 961.9 hPa | 0 mm | - | - | - |
| 1777356211 | 15.56° C | 38% | 961.7 hPa | 0 mm | - | - | - |
| 1777354409 | 13.89° C | 44% | 961.8 hPa | 0 mm | - | - | - |
| 1777352610 | 11.67° C | 50% | 961.5 hPa | 0 mm | - | - | - |
| 1777350809 | 11.67° C | 51% | 961.5 hPa | 0 mm | - | - | - |
| 1777349009 | 12.22° C | 45% | 961.6 hPa | 0 mm | - | - | - |
| 1777347210 | 13.33° C | 42% | 961.7 hPa | 0 mm | - | - | - |
| 1777345411 | 13.33° C | 42% | 961.5 hPa | 0 mm | - | - | - |
| 1777343610 | 13.89° C | 40% | 961.7 hPa | 0 mm | - | - | - |
| 1777341810 | 13.89° C | 41% | 961.8 hPa | 0 mm | - | - | - |
| 1777340010 | 13.89° C | 42% | 961.9 hPa | 0 mm | - | - | - |
| 1777338210 | 14.44° C | 42% | 962 hPa | 0 mm | - | - | - |
| 1777336410 | 14.44° C | 42% | 962.3 hPa | 0 mm | - | - | - |
* Rain latest hour (hover to see other rain measurements)
** Current wind speed in m/s (hover to see current wind gust speed)